createdAt,value
2022-10-31T00:01:22.934Z,13.40
2022-10-31T00:03:49.768Z,13.97
2022-10-31T00:06:19.124Z,14.13
2022-10-31T00:08:47.408Z,15.03
2022-10-31T00:11:14.168Z,13.93
2022-10-31T00:13:41.004Z,14.77
2022-10-31T00:16:16.475Z,14.57
2022-10-31T00:18:43.422Z,14.43
2022-10-31T00:21:10.237Z,14.37
2022-10-31T00:23:37.024Z,13.70
2022-10-31T00:26:04.016Z,14.00
2022-10-31T00:28:33.444Z,14.43
2022-10-31T00:31:04.037Z,13.90
2022-10-31T00:33:31.002Z,15.00
2022-10-31T00:35:57.749Z,14.93
2022-10-31T00:38:24.608Z,14.20
2022-10-31T00:40:51.452Z,15.63
2022-10-31T00:43:20.510Z,14.80
2022-10-31T00:45:47.244Z,16.30
2022-10-31T00:48:13.978Z,16.47
2022-10-31T00:50:40.853Z,16.70
2022-10-31T00:53:07.680Z,17.40
2022-10-31T00:55:34.530Z,17.67
2022-10-31T00:58:01.786Z,17.97
2022-10-31T01:00:28.819Z,19.27
2022-10-31T01:02:55.625Z,18.07
2022-10-31T01:05:22.420Z,17.30
2022-10-31T01:07:49.222Z,17.57
2022-10-31T01:10:16.050Z,17.40
2022-10-31T01:12:49.986Z,17.83
2022-10-31T01:15:21.610Z,18.03
2022-10-31T01:17:48.699Z,18.47
2022-10-31T01:20:15.910Z,18.87
2022-10-31T01:22:42.707Z,17.67
2022-10-31T01:25:15.088Z,17.97
2022-10-31T01:27:41.894Z,17.93
2022-10-31T01:30:09.075Z,17.53
2022-10-31T01:32:35.890Z,17.57
2022-10-31T01:35:02.696Z,16.90
2022-10-31T01:37:31.933Z,17.53
2022-10-31T01:39:58.700Z,16.50
2022-10-31T01:42:25.441Z,16.40
2022-10-31T01:45:00.579Z,17.20
2022-10-31T01:47:38.637Z,17.17
2022-10-31T01:50:10.862Z,16.67
2022-10-31T01:52:39.860Z,15.23
2022-10-31T01:55:06.651Z,15.87
2022-10-31T01:57:34.073Z,15.93
2022-10-31T02:00:02.173Z,15.80
2022-10-31T02:02:33.646Z,15.13
2022-10-31T02:05:02.549Z,14.10
2022-10-31T02:07:39.674Z,14.90
2022-10-31T02:10:06.735Z,15.60
2022-10-31T02:12:34.025Z,16.07
2022-10-31T02:15:03.615Z,16.17
2022-10-31T02:17:30.955Z,15.30
2022-10-31T02:20:15.946Z,16.27
2022-10-31T02:22:54.831Z,14.43
2022-10-31T02:25:36.558Z,15.80
2022-10-31T02:28:24.263Z,14.90
2022-10-31T02:31:00.207Z,14.63
2022-10-31T02:33:36.027Z,15.17
2022-10-31T02:36:13.867Z,14.77
2022-10-31T02:39:05.447Z,15.70
2022-10-31T02:41:41.137Z,15.00
2022-10-31T02:44:11.049Z,14.63
2022-10-31T02:46:40.609Z,14.97
2022-10-31T02:49:12.556Z,15.10
2022-10-31T02:51:40.340Z,15.50
2022-10-31T02:54:19.837Z,14.57
2022-10-31T02:56:46.961Z,14.10
2022-10-31T02:59:13.695Z,14.53
2022-10-31T03:01:49.354Z,15.87
2022-10-31T03:04:23.841Z,14.53
2022-10-31T03:06:53.710Z,14.60
2022-10-31T03:09:31.030Z,14.80
2022-10-31T03:12:19.194Z,14.50
2022-10-31T03:15:03.315Z,15.10
2022-10-31T03:17:36.417Z,14.07
2022-10-31T03:20:03.469Z,14.23
2022-10-31T03:22:31.609Z,13.90
2022-10-31T03:24:58.353Z,14.13
2022-10-31T03:27:30.640Z,14.93
2022-10-31T03:29:58.571Z,13.63
2022-10-31T03:32:52.381Z,14.33
2022-10-31T03:35:20.299Z,14.33
2022-10-31T03:37:50.125Z,14.17
2022-10-31T03:40:17.103Z,14.70
2022-10-31T03:42:47.915Z,14.40
2022-10-31T03:45:20.628Z,14.20
2022-10-31T03:47:52.049Z,15.07
2022-10-31T03:50:18.857Z,14.73
2022-10-31T03:52:50.747Z,15.00
2022-10-31T03:55:25.417Z,15.03
2022-10-31T03:57:52.131Z,14.27
2022-10-31T04:00:21.230Z,16.90
2022-10-31T04:03:19.866Z,15.60
2022-10-31T04:05:47.411Z,13.97
2022-10-31T04:08:17.119Z,15.13
2022-10-31T04:10:44.077Z,14.30
2022-10-31T04:13:13.528Z,15.33
2022-10-31T04:15:40.305Z,15.20
2022-10-31T04:18:07.057Z,16.23
2022-10-31T04:20:41.124Z,15.40
2022-10-31T04:23:18.671Z,15.07
2022-10-31T04:25:45.419Z,15.57
2022-10-31T04:28:16.624Z,18.10
2022-10-31T04:30:43.439Z,18.67
2022-10-31T04:33:10.176Z,18.27
2022-10-31T04:35:36.934Z,18.80
2022-10-31T04:38:06.123Z,20.30
2022-10-31T04:40:35.276Z,19.40
2022-10-31T04:43:02.370Z,19.60
2022-10-31T04:45:29.275Z,18.60
2022-10-31T04:47:56.036Z,18.93
2022-10-31T04:50:22.810Z,17.93
2022-10-31T04:52:49.550Z,18.07
2022-10-31T04:55:16.451Z,18.27
2022-10-31T04:57:47.799Z,17.97
2022-10-31T05:00:15.789Z,18.50
2022-10-31T05:02:55.942Z,17.10
2022-10-31T05:05:24.255Z,17.60
2022-10-31T05:07:56.232Z,16.40
2022-10-31T05:10:29.737Z,17.17
2022-10-31T05:13:03.696Z,17.80
2022-10-31T05:15:35.740Z,17.03
2022-10-31T05:18:05.268Z,17.83
2022-10-31T05:20:34.482Z,17.40
2022-10-31T05:23:01.295Z,18.33
2022-10-31T05:25:30.635Z,18.20
2022-10-31T05:27:57.873Z,17.73
2022-10-31T05:30:27.139Z,18.37
2022-10-31T05:32:53.909Z,17.23
2022-10-31T05:35:25.216Z,17.17
2022-10-31T05:37:51.985Z,17.97
2022-10-31T05:40:19.699Z,17.20
2022-10-31T05:42:46.502Z,17.80
2022-10-31T05:45:19.577Z,18.30
2022-10-31T05:47:52.936Z,17.50
2022-10-31T05:50:19.827Z,18.33
2022-10-31T05:52:46.809Z,17.53
2022-10-31T05:55:15.744Z,17.70
2022-10-31T05:57:45.484Z,17.77
2022-10-31T06:00:12.869Z,17.90
2022-10-31T06:02:39.611Z,18.20
2022-10-31T06:05:08.996Z,17.77
2022-10-31T06:07:38.610Z,18.73
2022-10-31T06:10:06.537Z,19.13
2022-10-31T06:12:33.333Z,19.63
2022-10-31T06:15:02.605Z,20.30
2022-10-31T06:17:29.322Z,19.20
2022-10-31T06:19:58.299Z,20.23
2022-10-31T06:22:25.027Z,20.40
2022-10-31T06:24:51.827Z,19.90
2022-10-31T06:27:18.560Z,20.47
2022-10-31T06:29:47.645Z,20.73
2022-10-31T06:32:14.390Z,20.87
2022-10-31T06:34:43.666Z,21.63
2022-10-31T06:37:11.491Z,21.77
2022-10-31T06:39:38.329Z,21.03
2022-10-31T06:42:05.268Z,22.10
2022-10-31T06:44:32.198Z,23.60
2022-10-31T06:46:58.943Z,23.17
2022-10-31T06:49:27.864Z,22.50
2022-10-31T06:51:59.658Z,22.83
2022-10-31T06:54:26.464Z,22.73
2022-10-31T06:56:53.410Z,22.30
2022-10-31T06:59:22.624Z,22.83
2022-10-31T07:01:51.662Z,22.70
2022-10-31T07:04:18.607Z,22.47
2022-10-31T07:06:50.910Z,22.60
2022-10-31T07:09:18.635Z,21.20
2022-10-31T07:11:45.374Z,21.33
2022-10-31T07:14:14.291Z,22.43
2022-10-31T07:16:41.037Z,21.30
2022-10-31T07:19:10.404Z,20.70
2022-10-31T07:21:39.692Z,19.93
2022-10-31T07:24:06.553Z,20.10
2022-10-31T07:26:35.973Z,17.80
2022-10-31T07:29:02.714Z,17.03
2022-10-31T07:31:31.950Z,17.13
2022-10-31T07:33:58.807Z,15.93
2022-10-31T07:36:27.716Z,15.47
2022-10-31T07:38:54.441Z,16.17
2022-10-31T07:41:23.411Z,16.17
2022-10-31T07:43:50.179Z,15.90
2022-10-31T07:46:16.992Z,15.30
2022-10-31T07:48:43.728Z,17.83
2022-10-31T07:51:12.712Z,18.10
2022-10-31T07:53:39.440Z,18.37
2022-10-31T07:56:06.368Z,18.77
2022-10-31T07:58:35.262Z,18.87
2022-10-31T08:01:02.114Z,18.67
2022-10-31T08:03:28.976Z,18.00
2022-10-31T08:05:55.710Z,18.87
2022-10-31T08:08:22.511Z,20.20
2022-10-31T08:10:51.629Z,21.00
2022-10-31T08:13:20.588Z,19.80
2022-10-31T08:15:51.242Z,20.53
2022-10-31T08:18:18.572Z,20.00
2022-10-31T08:20:45.413Z,20.33
2022-10-31T08:23:12.780Z,19.43
2022-10-31T08:25:39.623Z,19.97
2022-10-31T08:28:07.045Z,18.57
2022-10-31T08:30:35.163Z,19.40
2022-10-31T08:33:02.590Z,18.90
2022-10-31T08:35:29.394Z,19.03
2022-10-31T08:37:59.404Z,19.33
2022-10-31T08:40:29.758Z,17.43
2022-10-31T08:43:04.485Z,18.80
2022-10-31T08:45:31.894Z,18.07
2022-10-31T08:48:05.086Z,16.90
2022-10-31T08:50:35.090Z,16.60
2022-10-31T08:53:06.473Z,18.03
2022-10-31T08:55:36.814Z,17.87
2022-10-31T08:58:04.971Z,17.50
2022-10-31T09:00:32.439Z,18.10
2022-10-31T09:03:00.024Z,17.47
2022-10-31T09:05:26.956Z,17.83
2022-10-31T09:07:58.327Z,17.10
2022-10-31T09:10:26.050Z,17.97
2022-10-31T09:13:07.263Z,16.57
2022-10-31T09:15:39.708Z,18.17
2022-10-31T09:18:07.109Z,17.80
2022-10-31T09:20:34.751Z,18.47
2022-10-31T09:23:03.632Z,18.50
2022-10-31T09:25:30.467Z,18.43
2022-10-31T09:28:00.770Z,17.87
2022-10-31T09:30:28.706Z,19.43
2022-10-31T09:32:59.101Z,18.53
2022-10-31T09:35:28.742Z,18.60
2022-10-31T09:38:02.830Z,18.60
2022-10-31T09:40:37.060Z,18.93
2022-10-31T09:43:14.980Z,18.90
2022-10-31T09:46:03.592Z,19.33
2022-10-31T09:48:33.524Z,19.50
2022-10-31T09:51:05.226Z,18.90
2022-10-31T09:53:40.367Z,20.40
2022-10-31T09:56:11.504Z,19.47
2022-10-31T09:58:46.343Z,19.47
2022-10-31T10:01:43.907Z,18.83
2022-10-31T10:04:33.890Z,19.70
2022-10-31T10:07:01.136Z,20.67
2022-10-31T10:09:30.009Z,20.73
2022-10-31T10:12:23.852Z,20.80
2022-10-31T10:15:09.048Z,21.60
2022-10-31T10:18:08.961Z,21.60
2022-10-31T10:21:08.075Z,23.00
2022-10-31T10:23:55.108Z,22.47
2022-10-31T10:29:38.053Z,23.27
2022-10-31T10:32:14.897Z,24.67
2022-10-31T10:34:46.345Z,25.90
2022-10-31T10:37:24.699Z,25.60
2022-10-31T10:39:59.556Z,24.97
2022-10-31T10:42:45.207Z,23.73
2022-10-31T10:45:37.762Z,23.47
2022-10-31T10:48:16.846Z,22.73
2022-10-31T10:50:50.345Z,24.00
2022-10-31T10:53:37.957Z,21.67
2022-10-31T10:56:21.961Z,20.87
2022-10-31T10:58:59.303Z,21.30
2022-10-31T11:01:26.119Z,20.63
2022-10-31T11:03:52.851Z,19.70
2022-10-31T11:06:27.117Z,20.50
2022-10-31T11:08:54.147Z,20.53
2022-10-31T11:11:26.527Z,20.97
2022-10-31T11:14:01.092Z,19.77
2022-10-31T11:16:27.860Z,20.30
2022-10-31T11:19:05.739Z,19.40
2022-10-31T11:21:34.521Z,20.60
2022-10-31T11:24:10.351Z,18.97
2022-10-31T11:26:40.554Z,20.10
2022-10-31T11:29:16.080Z,19.00
2022-10-31T11:31:42.971Z,19.27
2022-10-31T11:34:19.988Z,19.50
2022-10-31T11:36:48.855Z,19.70
2022-10-31T11:39:23.831Z,18.93
2022-10-31T11:41:54.217Z,19.77
2022-10-31T11:44:23.586Z,18.37
2022-10-31T11:46:51.703Z,18.37
2022-10-31T11:49:21.797Z,19.37
2022-10-31T11:51:50.362Z,18.43
2022-10-31T11:54:25.362Z,20.43
2022-10-31T11:56:52.148Z,18.93
2022-10-31T11:59:29.960Z,21.20
2022-10-31T12:01:58.389Z,20.73
2022-10-31T12:04:45.562Z,20.77
2022-10-31T12:07:12.306Z,21.37
2022-10-31T12:09:39.525Z,20.87
2022-10-31T12:12:27.505Z,21.87
2022-10-31T12:15:19.347Z,21.60
2022-10-31T12:18:07.569Z,22.77
2022-10-31T12:20:56.283Z,22.90
2022-10-31T12:23:25.762Z,22.93
2022-10-31T12:26:17.570Z,22.40
2022-10-31T12:29:16.777Z,24.27
2022-10-31T12:32:21.152Z,23.73
2022-10-31T12:35:21.700Z,25.17
2022-10-31T12:37:50.668Z,25.27
2022-10-31T12:40:50.940Z,24.27
2022-10-31T12:43:29.162Z,25.17
2022-10-31T12:45:59.099Z,25.97
2022-10-31T12:48:25.871Z,26.63
2022-10-31T12:51:07.997Z,26.47
2022-10-31T12:53:51.816Z,26.60
2022-10-31T12:56:30.683Z,26.50
2022-10-31T12:59:31.867Z,26.10
2022-10-31T13:02:04.214Z,26.37
2022-10-31T13:05:02.244Z,28.03
2022-10-31T13:07:31.160Z,27.10
2022-10-31T13:10:23.959Z,27.10
2022-10-31T13:12:52.723Z,27.80
2022-10-31T13:15:22.325Z,26.77
2022-10-31T13:18:02.680Z,27.50
2022-10-31T13:20:30.691Z,28.37
2022-10-31T13:23:49.060Z,28.80
2022-10-31T13:26:22.008Z,26.37
2022-10-31T13:29:00.159Z,28.17
2022-10-31T13:31:29.658Z,30.43
2022-10-31T13:33:59.428Z,29.53
2022-10-31T13:36:26.225Z,27.97
2022-10-31T13:38:57.208Z,29.30
2022-10-31T13:41:59.232Z,28.13
2022-10-31T13:44:28.974Z,28.33
2022-10-31T13:46:57.717Z,27.83
2022-10-31T13:49:39.106Z,29.00
2022-10-31T13:52:14.301Z,31.53
2022-10-31T13:54:45.811Z,29.87
2022-10-31T13:57:33.128Z,30.10
2022-10-31T14:00:06.476Z,29.47
2022-10-31T14:02:35.222Z,29.30
2022-10-31T14:05:26.188Z,27.90
2022-10-31T14:07:58.832Z,29.33
2022-10-31T14:10:32.916Z,29.27
2022-10-31T14:13:17.949Z,29.73
2022-10-31T14:15:54.289Z,29.57
2022-10-31T14:18:36.991Z,28.67
2022-10-31T14:21:26.138Z,31.17
2022-10-31T14:23:55.509Z,29.20
2022-10-31T14:26:22.256Z,28.80
2022-10-31T14:28:52.619Z,30.73
2022-10-31T14:31:42.576Z,30.23
2022-10-31T14:34:25.194Z,29.00
2022-10-31T14:36:57.112Z,27.67
2022-10-31T14:39:35.346Z,27.00
2022-10-31T14:42:23.976Z,28.37
2022-10-31T14:45:05.105Z,27.37
2022-10-31T14:47:34.990Z,28.57
2022-10-31T14:50:19.921Z,28.90
2022-10-31T14:52:48.624Z,28.43
2022-10-31T14:55:17.472Z,31.40
2022-10-31T14:57:58.674Z,28.90
2022-10-31T15:00:27.895Z,32.50
2022-10-31T15:02:54.622Z,30.07
2022-10-31T15:05:21.772Z,28.07
2022-10-31T15:07:56.920Z,30.47
2022-10-31T15:10:35.908Z,29.83
2022-10-31T15:13:18.927Z,30.97
2022-10-31T15:15:49.630Z,31.93
2022-10-31T15:18:21.479Z,30.47
2022-10-31T15:20:50.463Z,31.47
2022-10-31T15:23:22.335Z,31.40
2022-10-31T15:25:49.072Z,31.83
2022-10-31T15:28:17.656Z,31.60
2022-10-31T15:30:56.612Z,31.03
2022-10-31T15:33:30.288Z,30.30
2022-10-31T15:36:02.661Z,32.40
2022-10-31T15:38:30.255Z,33.40
2022-10-31T15:41:05.316Z,32.13
2022-10-31T15:43:39.264Z,32.73
2022-10-31T15:46:11.236Z,32.73
2022-10-31T15:48:39.395Z,32.93
2022-10-31T15:51:08.701Z,34.93
2022-10-31T15:53:53.939Z,34.60
2022-10-31T15:56:23.040Z,33.90
2022-10-31T15:58:53.276Z,33.60
2022-10-31T16:01:30.972Z,34.03
2022-10-31T16:04:13.200Z,34.13
2022-10-31T16:06:42.564Z,33.33
2022-10-31T16:09:24.896Z,32.00
2022-10-31T16:11:51.621Z,32.63
2022-10-31T16:14:25.494Z,34.13
2022-10-31T16:16:54.775Z,32.13
2022-10-31T16:19:24.293Z,32.50
2022-10-31T16:21:56.562Z,32.77
2022-10-31T16:24:34.077Z,33.17
2022-10-31T16:27:14.999Z,32.27
2022-10-31T16:29:46.243Z,33.07
2022-10-31T16:32:34.752Z,31.77
2022-10-31T16:35:10.781Z,33.53
2022-10-31T16:37:43.529Z,33.70
2022-10-31T16:40:14.468Z,34.93
2022-10-31T16:42:44.440Z,34.00
2022-10-31T16:45:22.948Z,33.60
2022-10-31T16:47:49.960Z,34.60
2022-10-31T16:50:21.524Z,34.40
2022-10-31T16:55:37.516Z,36.33
2022-10-31T16:58:06.740Z,37.43
2022-10-31T17:00:33.482Z,36.97
2022-10-31T17:03:00.266Z,36.53
2022-10-31T17:05:30.276Z,37.40
2022-10-31T17:07:59.993Z,38.63
2022-10-31T17:10:29.246Z,38.27
2022-10-31T17:12:57.461Z,39.27
2022-10-31T17:15:25.700Z,38.53
2022-10-31T17:17:55.088Z,38.67
2022-10-31T17:20:27.222Z,37.77
2022-10-31T17:22:56.668Z,36.07
2022-10-31T17:25:26.767Z,37.43
2022-10-31T17:27:53.530Z,36.43
2022-10-31T17:30:21.016Z,36.23
2022-10-31T17:32:52.843Z,36.87
2022-10-31T17:35:19.851Z,31.43
2022-10-31T17:37:46.917Z,32.87
2022-10-31T17:40:18.918Z,34.70
2022-10-31T17:42:52.890Z,34.97
2022-10-31T17:45:20.153Z,33.70
2022-10-31T17:47:48.500Z,32.60
2022-10-31T17:50:19.966Z,31.97
2022-10-31T17:52:46.851Z,32.43
2022-10-31T17:55:16.018Z,31.73
2022-10-31T17:57:44.139Z,31.63
2022-10-31T18:00:22.609Z,30.80
2022-10-31T18:02:49.395Z,30.07
2022-10-31T18:05:18.317Z,30.83
2022-10-31T18:07:45.473Z,31.73
2022-10-31T18:10:12.266Z,29.07
2022-10-31T18:12:39.172Z,31.30
2022-10-31T18:15:06.466Z,32.13
2022-10-31T18:17:34.915Z,31.50
2022-10-31T18:20:04.031Z,29.77
2022-10-31T18:22:30.782Z,31.27
2022-10-31T18:25:01.874Z,31.40
2022-10-31T18:27:29.242Z,31.67
2022-10-31T18:29:56.401Z,31.10
2022-10-31T18:32:25.489Z,31.13
2022-10-31T18:34:52.231Z,30.17
2022-10-31T18:37:18.987Z,31.30
2022-10-31T18:39:46.130Z,30.97
2022-10-31T18:42:12.857Z,31.83
2022-10-31T18:44:39.600Z,30.07
2022-10-31T18:47:06.363Z,31.03
2022-10-31T18:49:33.598Z,30.80
2022-10-31T18:52:00.808Z,30.43
2022-10-31T18:54:27.726Z,30.60
2022-10-31T18:56:55.987Z,29.57
2022-10-31T18:59:22.807Z,33.27
2022-10-31T19:01:49.713Z,31.77
2022-10-31T19:04:19.086Z,31.53
2022-10-31T19:06:45.864Z,32.30
2022-10-31T19:09:15.123Z,31.93
2022-10-31T19:11:41.920Z,31.63
2022-10-31T19:14:10.877Z,32.83
2022-10-31T19:16:37.623Z,31.47
2022-10-31T19:19:04.446Z,32.37
2022-10-31T19:21:33.536Z,31.70
2022-10-31T19:24:00.419Z,33.30
2022-10-31T19:26:27.461Z,32.33
2022-10-31T19:28:55.652Z,31.17
2022-10-31T19:31:24.902Z,32.70
2022-10-31T19:33:51.651Z,31.57
2022-10-31T19:36:19.289Z,31.37
2022-10-31T19:38:47.644Z,30.60
2022-10-31T19:41:16.316Z,30.87
2022-10-31T19:43:45.600Z,33.47
2022-10-31T19:46:22.082Z,33.17
2022-10-31T19:48:54.749Z,32.07
2022-10-31T19:51:21.850Z,31.13
2022-10-31T19:53:50.918Z,33.57
2022-10-31T19:56:20.588Z,31.90
2022-10-31T19:58:47.666Z,31.70
2022-10-31T20:01:22.058Z,31.20
2022-10-31T20:03:49.247Z,31.60
2022-10-31T20:06:16.251Z,32.23
2022-10-31T20:08:43.008Z,30.23
2022-10-31T20:11:09.795Z,31.77
2022-10-31T20:13:36.548Z,32.53
2022-10-31T20:16:05.952Z,30.27
2022-10-31T20:18:32.840Z,31.83
2022-10-31T20:21:10.602Z,30.63
2022-10-31T20:23:39.786Z,30.17
2022-10-31T20:26:06.816Z,30.23
2022-10-31T20:28:40.046Z,29.33
2022-10-31T20:31:17.656Z,30.23
2022-10-31T20:33:47.454Z,30.40
2022-10-31T20:36:19.503Z,31.17
2022-10-31T20:38:46.521Z,30.33
2022-10-31T20:41:15.186Z,30.50
2022-10-31T20:43:42.208Z,31.10
2022-10-31T20:46:12.694Z,30.60
2022-10-31T20:48:42.154Z,32.27
2022-10-31T20:53:48.235Z,31.50
2022-10-31T20:56:16.562Z,29.07
2022-10-31T20:58:43.710Z,29.50
2022-10-31T21:01:20.650Z,29.30
2022-10-31T21:03:47.645Z,29.83
2022-10-31T21:06:14.764Z,32.87
2022-10-31T21:08:42.205Z,32.77
2022-10-31T21:11:13.809Z,31.27
2022-10-31T21:13:41.527Z,30.20
2022-10-31T21:16:13.833Z,30.80
2022-10-31T21:18:43.696Z,33.57
2022-10-31T21:21:20.231Z,29.50
2022-10-31T21:23:47.319Z,31.00
2022-10-31T21:26:16.126Z,30.90
2022-10-31T21:28:42.924Z,29.77
2022-10-31T21:31:12.406Z,28.93
2022-10-31T21:33:39.444Z,29.20
2022-10-31T21:36:07.035Z,29.43
2022-10-31T21:38:34.208Z,30.17
2022-10-31T21:41:02.124Z,27.93
2022-10-31T21:43:29.032Z,27.33
2022-10-31T21:45:58.016Z,29.37
2022-10-31T21:48:29.007Z,27.53
2022-10-31T21:50:55.812Z,27.07
2022-10-31T21:53:41.396Z,28.97
2022-10-31T21:56:08.525Z,27.47
2022-10-31T21:58:37.765Z,27.33
2022-10-31T22:01:05.675Z,28.17
2022-10-31T22:03:36.447Z,29.37
2022-10-31T22:06:06.865Z,29.17
2022-10-31T22:08:35.768Z,28.20
2022-10-31T22:11:03.614Z,28.47
2022-10-31T22:13:33.917Z,27.47
2022-10-31T22:16:06.293Z,26.60
2022-10-31T22:18:35.676Z,27.77
2022-10-31T22:21:18.081Z,24.73
2022-10-31T22:23:44.992Z,24.67
2022-10-31T22:26:14.435Z,24.53
2022-10-31T22:28:42.089Z,24.10
2022-10-31T22:33:51.689Z,23.47
2022-10-31T22:36:20.194Z,24.97
2022-10-31T22:38:47.121Z,23.07
2022-10-31T22:41:21.659Z,24.37
2022-10-31T22:43:48.607Z,23.80
2022-10-31T22:46:28.002Z,24.50
2022-10-31T22:48:57.661Z,23.57
2022-10-31T22:51:29.134Z,24.57
2022-10-31T22:53:59.155Z,23.60
2022-10-31T22:56:28.176Z,23.57
2022-10-31T22:58:55.061Z,23.90
2022-10-31T23:01:23.930Z,24.10
2022-10-31T23:03:50.920Z,24.93
2022-10-31T23:06:19.443Z,24.93
2022-10-31T23:08:46.345Z,23.90
2022-10-31T23:11:25.724Z,24.57
2022-10-31T23:14:10.404Z,25.33
2022-10-31T23:16:41.374Z,24.43
2022-10-31T23:19:08.850Z,23.50
2022-10-31T23:21:55.260Z,23.70
2022-10-31T23:24:36.646Z,23.20
2022-10-31T23:27:24.791Z,23.60
2022-10-31T23:29:56.211Z,22.67
2022-10-31T23:32:28.954Z,24.80
2022-10-31T23:35:03.404Z,24.80
2022-10-31T23:37:31.486Z,23.97
2022-10-31T23:40:00.506Z,23.10
2022-10-31T23:42:27.683Z,23.80
2022-10-31T23:44:54.561Z,22.30
2022-10-31T23:47:26.872Z,22.43
2022-10-31T23:49:53.670Z,20.87
2022-10-31T23:52:20.498Z,20.80
2022-10-31T23:54:47.342Z,20.23
2022-10-31T23:57:17.152Z,20.80
2022-10-31T23:59:44.043Z,19.93
